createdAt,value
2019-04-21T00:04:52.018Z,37.19
2019-04-21T00:10:06.289Z,37.36
2019-04-21T00:15:00.725Z,37.33
2019-04-21T00:20:05.545Z,37.46
2019-04-21T00:25:14.044Z,37.52
2019-04-21T00:30:30.331Z,37.62
2019-04-21T00:35:13.304Z,37.62
2019-04-21T00:40:35.526Z,37.57
2019-04-21T00:45:31.305Z,37.98
2019-04-21T00:50:51.796Z,38.07
2019-04-21T00:55:52.027Z,37.83
2019-04-21T01:00:57.069Z,37.91
2019-04-21T01:05:56.087Z,38.08
2019-04-21T01:10:52.990Z,38.01
2019-04-21T01:16:06.478Z,38.25
2019-04-21T01:20:48.989Z,38.24
2019-04-21T01:26:06.794Z,38.37
2019-04-21T01:31:15.363Z,38.38
2019-04-21T01:36:14.452Z,38.79
2019-04-21T01:41:25.556Z,38.93
2019-04-21T01:46:28.379Z,39.09
2019-04-21T01:51:28.105Z,39.15
2019-04-21T01:56:46.658Z,39.52
2019-04-21T02:01:48.494Z,39.77
2019-04-21T02:06:55.034Z,39.77
2019-04-21T02:12:00.078Z,39.76
2019-04-21T02:17:00.661Z,39.99
2019-04-21T02:22:02.394Z,40.31
2019-04-21T02:27:13.201Z,40.35
2019-04-21T02:37:36.801Z,40.32
2019-04-21T02:42:37.868Z,40.46
2019-04-21T02:47:47.482Z,40.93
2019-04-21T02:52:52.740Z,41.00
2019-04-21T03:03:05.585Z,41.17
2019-04-21T03:13:17.523Z,41.50
2019-04-21T03:18:17.651Z,41.46
2019-04-21T03:23:19.164Z,41.64
2019-04-21T03:28:22.210Z,41.83
2019-04-21T03:38:28.845Z,41.94
2019-04-21T03:48:36.575Z,42.01
2019-04-21T03:53:40.361Z,42.14
2019-04-21T04:04:30.516Z,42.14
2019-04-21T04:14:44.483Z,42.16
2019-04-21T04:19:45.082Z,42.25
2019-04-21T04:24:57.544Z,42.26
2019-04-21T04:29:59.357Z,42.25
2019-04-21T04:40:31.437Z,42.49
2019-04-21T04:45:41.656Z,42.52
2019-04-21T05:00:45.914Z,42.84
2019-04-21T05:06:42.109Z,42.63
2019-04-21T05:11:46.095Z,42.57
2019-04-21T05:16:55.909Z,43.03
2019-04-21T05:21:42.057Z,42.58
2019-04-21T05:26:39.153Z,42.57
2019-04-21T05:32:07.887Z,42.32
2019-04-21T05:37:29.280Z,40.29
2019-04-21T05:42:35.335Z,36.11
2019-04-21T05:48:12.062Z,33.25
2019-04-21T05:53:00.754Z,31.78
2019-04-21T05:58:06.912Z,30.05
2019-04-21T06:03:17.552Z,28.45
2019-04-21T06:08:19.356Z,27.42
2019-04-21T06:13:26.859Z,26.53
2019-04-21T06:18:36.426Z,25.23
2019-04-21T06:23:38.093Z,24.51
2019-04-21T06:28:44.067Z,23.79
2019-04-21T06:33:41.977Z,23.06
2019-04-21T06:39:06.410Z,22.94
2019-04-21T06:44:20.333Z,22.84
2019-04-21T06:49:02.687Z,22.61
2019-04-21T06:54:09.849Z,22.94
2019-04-21T06:59:20.851Z,22.89
2019-04-21T07:09:23.817Z,23.63
2019-04-21T07:14:30.214Z,24.61
2019-04-21T07:19:34.686Z,24.96
2019-04-21T07:24:35.445Z,25.24
2019-04-21T07:29:45.346Z,25.52
2019-04-21T07:34:38.547Z,25.58
2019-04-21T07:39:40.508Z,27.95
2019-04-21T07:44:40.854Z,25.74
2019-04-21T07:50:07.438Z,25.68
2019-04-21T08:05:20.008Z,26.66
2019-04-21T08:10:22.478Z,26.63
2019-04-21T08:15:38.592Z,26.59
2019-04-21T08:20:31.336Z,26.26
2019-04-21T08:25:46.538Z,26.28
2019-04-21T08:30:43.028Z,26.67
2019-04-21T08:36:08.001Z,26.02
2019-04-21T08:40:52.443Z,26.19
2019-04-21T08:45:52.738Z,26.86
2019-04-21T08:51:05.655Z,25.32
2019-04-21T08:56:17.314Z,25.81
2019-04-21T09:01:42.933Z,25.92
2019-04-21T09:11:47.191Z,25.47
2019-04-21T09:16:54.941Z,25.36
2019-04-21T09:22:13.244Z,24.86
2019-04-21T09:26:58.026Z,24.91
2019-04-21T09:31:49.441Z,25.24
2019-04-21T09:37:02.847Z,23.68
2019-04-21T09:41:59.069Z,23.00
2019-04-21T09:47:02.029Z,23.88
2019-04-21T09:52:06.670Z,21.99
2019-04-21T09:57:15.236Z,22.47
2019-04-21T10:02:18.856Z,22.21
2019-04-21T10:07:24.677Z,22.19
2019-04-21T10:12:19.992Z,21.20
2019-04-21T10:17:49.572Z,20.54
2019-04-21T10:22:53.014Z,20.67
2019-04-21T10:27:55.138Z,20.47
2019-04-21T10:32:58.425Z,20.64
2019-04-21T10:38:12.894Z,20.93
2019-04-21T10:43:07.487Z,21.91
2019-04-21T10:48:08.867Z,21.90
2019-04-21T10:53:23.111Z,21.99
2019-04-21T10:58:44.949Z,22.22
2019-04-21T11:03:51.014Z,22.00
2019-04-21T11:08:55.597Z,21.58
2019-04-21T11:13:57.157Z,21.88
2019-04-21T11:19:00.018Z,21.90
2019-04-21T11:24:02.243Z,22.25
2019-04-21T11:29:05.236Z,22.03
2019-04-21T11:34:09.635Z,22.19
2019-04-21T11:39:30.781Z,22.49
2019-04-21T11:44:24.770Z,23.00
2019-04-21T11:49:30.500Z,22.96
2019-04-21T11:54:31.155Z,22.45
2019-04-21T11:59:33.523Z,22.63
2019-04-21T12:04:35.900Z,22.51
2019-04-21T12:09:37.987Z,22.81
2019-04-21T12:14:41.834Z,22.89
2019-04-21T12:19:44.750Z,22.83
2019-04-21T12:24:49.068Z,22.74
2019-04-21T12:29:51.683Z,23.03
2019-04-21T12:34:55.310Z,22.96
2019-04-21T12:39:58.979Z,22.94
2019-04-21T12:45:01.490Z,22.79
2019-04-21T12:50:04.820Z,23.00
2019-04-21T12:55:07.380Z,23.04
2019-04-21T13:00:13.097Z,22.71
2019-04-21T13:05:15.974Z,22.50
2019-04-21T13:10:20.093Z,22.17
2019-04-21T13:15:22.466Z,22.40
2019-04-21T13:20:25.415Z,22.11
2019-04-21T13:25:27.865Z,22.44
2019-04-21T13:30:30.559Z,22.25
2019-04-21T13:35:33.159Z,22.48
2019-04-21T13:41:17.577Z,22.39
2019-04-21T13:46:08.271Z,22.73
2019-04-21T13:51:11.206Z,22.66
2019-04-21T13:56:14.340Z,22.96
2019-04-21T14:01:17.932Z,22.39
2019-04-21T14:06:20.528Z,22.57
2019-04-21T14:11:23.060Z,22.75
2019-04-21T14:16:26.617Z,23.25
2019-04-21T14:21:29.395Z,23.03
2019-04-21T14:26:32.123Z,22.54
2019-04-21T14:31:34.746Z,22.84
2019-04-21T14:36:37.176Z,22.57
2019-04-21T14:41:40.288Z,22.85
2019-04-21T14:46:50.962Z,23.38
2019-04-21T14:52:19.107Z,23.29
2019-04-21T14:57:21.446Z,23.47
2019-04-21T15:02:23.806Z,24.07
2019-04-21T15:07:28.671Z,23.61
2019-04-21T15:12:31.809Z,23.43
2019-04-21T15:17:33.999Z,23.44
2019-04-21T15:22:36.460Z,23.51
2019-04-21T15:27:39.040Z,24.05
2019-04-21T15:32:42.299Z,24.16
2019-04-21T15:37:46.225Z,24.41
2019-04-21T15:42:48.526Z,24.47
2019-04-21T15:47:51.887Z,24.43
2019-04-21T15:52:55.882Z,24.64
2019-04-21T15:58:16.500Z,24.58
2019-04-21T16:03:18.998Z,24.52
2019-04-21T16:08:22.018Z,24.66
2019-04-21T16:13:25.791Z,24.52
2019-04-21T16:18:28.097Z,24.55
2019-04-21T16:23:30.731Z,24.52
2019-04-21T16:28:33.381Z,24.82
2019-04-21T16:33:36.826Z,25.02
2019-04-21T16:38:39.648Z,25.14
2019-04-21T16:43:43.036Z,25.29
2019-04-21T16:48:49.353Z,25.57
2019-04-21T16:53:57.695Z,25.51
2019-04-21T16:59:06.381Z,25.66
2019-04-21T17:04:10.647Z,25.52
2019-04-21T17:09:12.977Z,25.47
2019-04-21T17:14:31.220Z,25.49
2019-04-21T17:19:27.185Z,25.51
2019-04-21T17:24:24.271Z,25.63
2019-04-21T17:29:26.602Z,25.73
2019-04-21T17:34:30.595Z,25.85
2019-04-21T17:39:32.683Z,25.97
2019-04-21T17:44:35.164Z,26.15
2019-04-21T17:49:37.454Z,26.32
2019-04-21T17:54:48.498Z,26.52
2019-04-21T18:00:11.621Z,26.67
2019-04-21T18:05:18.775Z,26.86
2019-04-21T18:10:14.366Z,26.96
2019-04-21T18:15:16.922Z,27.06
2019-04-21T18:20:01.919Z,27.15
2019-04-21T18:25:13.770Z,27.40
2019-04-21T18:30:36.251Z,27.53
2019-04-21T18:35:58.167Z,27.66
2019-04-21T18:41:01.437Z,27.97
2019-04-21T18:46:42.308Z,28.15
2019-04-21T18:51:55.204Z,28.30
2019-04-21T18:56:56.565Z,28.52
2019-04-21T19:01:59.721Z,28.74
2019-04-21T19:07:12.740Z,28.98
2019-04-21T19:12:23.540Z,29.17
2019-04-21T19:22:28.875Z,29.51
2019-04-21T19:27:31.105Z,29.65
2019-04-21T19:32:36.182Z,29.80
2019-04-21T19:37:26.997Z,30.02
2019-04-21T19:42:37.586Z,30.20
2019-04-21T19:47:56.540Z,30.42
2019-04-21T19:52:48.626Z,30.71
2019-04-21T19:57:43.142Z,30.67
2019-04-21T20:02:46.038Z,30.73
2019-04-21T20:08:06.683Z,30.90
2019-04-21T20:13:15.173Z,31.02
2019-04-21T20:18:07.179Z,31.16
2019-04-21T20:23:03.074Z,31.21
2019-04-21T20:28:15.043Z,31.33
2019-04-21T20:33:46.918Z,31.47
2019-04-21T20:38:24.766Z,31.56
2019-04-21T20:43:38.661Z,31.71
2019-04-21T20:48:40.120Z,31.79
2019-04-21T20:53:40.956Z,31.88
2019-04-21T20:58:45.306Z,31.90
2019-04-21T21:03:50.559Z,32.11
2019-04-21T21:08:57.165Z,32.14
2019-04-21T21:13:58.931Z,32.22
2019-04-21T21:24:08.570Z,32.65
2019-04-21T21:29:07.085Z,32.73
2019-04-21T21:34:20.827Z,32.69
2019-04-21T21:39:21.364Z,32.80
2019-04-21T21:44:14.854Z,32.84
2019-04-21T21:49:27.897Z,32.95
2019-04-21T21:54:19.864Z,33.02
2019-04-21T21:59:27.542Z,33.20
2019-04-21T22:04:30.759Z,33.39
2019-04-21T22:09:32.376Z,33.56
2019-04-21T22:14:44.674Z,33.69
2019-04-21T22:20:03.792Z,33.77
2019-04-21T22:24:55.590Z,33.87
2019-04-21T22:29:52.847Z,33.99
2019-04-21T22:34:58.301Z,34.14
2019-04-21T22:40:09.614Z,34.29
2019-04-21T22:45:01.360Z,34.53
2019-04-21T22:50:04.608Z,34.72
2019-04-21T22:55:15.952Z,34.91
2019-04-21T23:00:15.492Z,35.11
2019-04-21T23:05:22.276Z,35.29
2019-04-21T23:10:23.374Z,35.54
2019-04-21T23:15:36.881Z,35.60
2019-04-21T23:20:47.974Z,35.74
2019-04-21T23:25:46.206Z,35.75
2019-04-21T23:31:00.872Z,35.94
2019-04-21T23:35:45.998Z,35.94
2019-04-21T23:40:54.259Z,35.97
2019-04-21T23:45:52.134Z,35.98
2019-04-21T23:51:07.688Z,36.03
2019-04-21T23:55:59.210Z,35.99
